createdAt,value
2019-03-13T00:01:23.543Z,1.40
2019-03-13T00:03:52.869Z,2.77
2019-03-13T00:06:23.187Z,1.70
2019-03-13T00:08:53.518Z,2.80
2019-03-13T00:11:24.040Z,2.73
2019-03-13T00:13:54.366Z,5.20
2019-03-13T00:16:24.894Z,2.10
2019-03-13T00:18:55.242Z,1.20
2019-03-13T00:21:25.319Z,2.10
2019-03-13T00:23:55.733Z,1.20
2019-03-13T00:26:25.913Z,1.00
2019-03-13T00:28:56.108Z,1.93
2019-03-13T00:31:26.426Z,1.40
2019-03-13T00:33:56.522Z,2.00
2019-03-13T00:36:26.847Z,1.93
2019-03-13T00:38:57.197Z,4.53
2019-03-13T00:41:27.517Z,7.87
2019-03-13T00:43:57.841Z,6.70
2019-03-13T00:46:28.303Z,3.83
2019-03-13T00:48:58.490Z,4.53
2019-03-13T00:51:28.714Z,3.93
2019-03-13T00:53:59.035Z,6.53
2019-03-13T00:56:29.360Z,11.50
2019-03-13T00:58:59.683Z,8.10
2019-03-13T01:01:31.451Z,10.23
2019-03-13T01:04:03.405Z,12.60
2019-03-13T01:06:35.163Z,8.50
2019-03-13T01:09:07.327Z,7.47
2019-03-13T01:11:37.663Z,8.10
2019-03-13T01:14:08.159Z,9.30
2019-03-13T01:16:38.511Z,5.43
2019-03-13T01:19:09.033Z,7.43
2019-03-13T01:21:39.360Z,4.60
2019-03-13T01:24:09.579Z,20.97
2019-03-13T01:26:40.726Z,21.17
2019-03-13T01:29:11.048Z,9.53
2019-03-13T01:31:51.486Z,13.07
2019-03-13T01:34:23.473Z,10.03
2019-03-13T01:36:53.793Z,22.83
2019-03-13T01:39:24.327Z,12.10
2019-03-13T01:41:54.649Z,19.30
2019-03-13T01:44:24.971Z,28.67
2019-03-13T01:46:55.295Z,21.03
2019-03-13T01:49:25.622Z,23.50
2019-03-13T01:51:55.991Z,25.07
2019-03-13T01:54:26.268Z,23.43
2019-03-13T01:56:56.901Z,27.43
2019-03-13T01:59:26.978Z,23.10
2019-03-13T02:01:57.342Z,32.30
2019-03-13T02:04:27.752Z,23.00
2019-03-13T02:06:58.195Z,21.17
2019-03-13T02:09:28.659Z,30.80
2019-03-13T02:11:59.071Z,23.97
2019-03-13T02:14:29.780Z,30.17
2019-03-13T02:17:00.107Z,25.90
2019-03-13T02:19:30.428Z,27.93
2019-03-13T02:22:00.761Z,15.17
2019-03-13T02:24:31.487Z,26.90
2019-03-13T02:27:01.811Z,24.17
2019-03-13T02:29:32.138Z,28.40
2019-03-13T02:32:02.461Z,21.33
2019-03-13T02:34:32.788Z,29.00
2019-03-13T02:37:03.317Z,13.37
2019-03-13T02:39:33.637Z,31.90
2019-03-13T02:42:03.963Z,15.87
2019-03-13T02:44:34.289Z,19.57
2019-03-13T02:47:04.611Z,36.03
2019-03-13T02:49:34.935Z,18.83
2019-03-13T02:52:05.273Z,22.33
2019-03-13T02:54:35.790Z,26.43
2019-03-13T02:57:05.928Z,22.70
2019-03-13T02:59:36.232Z,26.80
2019-03-13T03:02:08.241Z,14.60
2019-03-13T03:04:38.725Z,25.97
2019-03-13T03:07:12.655Z,26.83
2019-03-13T03:09:40.802Z,19.63
2019-03-13T03:12:11.133Z,19.57
2019-03-13T03:14:44.118Z,27.90
2019-03-13T03:17:14.333Z,25.80
2019-03-13T03:19:44.492Z,19.70
2019-03-13T03:22:14.982Z,18.87
2019-03-13T03:24:45.304Z,16.17
2019-03-13T03:27:15.631Z,15.33
2019-03-13T03:29:45.881Z,18.53
2019-03-13T03:32:16.075Z,16.57
2019-03-13T03:34:46.409Z,14.73
2019-03-13T03:37:16.723Z,11.57
2019-03-13T03:39:48.069Z,12.63
2019-03-13T03:42:18.496Z,18.13
2019-03-13T03:44:48.826Z,15.60
2019-03-13T03:47:19.148Z,21.67
2019-03-13T03:49:49.472Z,15.67
2019-03-13T03:52:19.792Z,12.50
2019-03-13T03:54:53.189Z,25.40
2019-03-13T03:57:23.287Z,19.50
2019-03-13T03:59:53.630Z,17.07
2019-03-13T04:02:23.785Z,16.70
2019-03-13T04:04:54.278Z,14.80
2019-03-13T04:07:24.810Z,19.33
2019-03-13T04:09:55.131Z,24.90
2019-03-13T04:12:26.297Z,17.93
2019-03-13T04:14:56.601Z,22.37
2019-03-13T04:17:27.032Z,15.67
2019-03-13T04:19:57.347Z,19.97
2019-03-13T04:22:27.574Z,22.40
2019-03-13T04:25:00.694Z,22.70
2019-03-13T04:27:31.089Z,24.57
2019-03-13T04:30:01.629Z,23.93
2019-03-13T04:32:31.844Z,20.77
2019-03-13T04:35:02.369Z,16.30
2019-03-13T04:37:32.586Z,22.33
2019-03-13T04:40:02.808Z,19.97
2019-03-13T04:42:33.236Z,22.40
2019-03-13T04:45:03.562Z,10.93
2019-03-13T04:47:33.884Z,23.47
2019-03-13T04:50:06.041Z,19.37
2019-03-13T04:52:36.582Z,16.67
2019-03-13T04:55:09.080Z,18.10
2019-03-13T04:57:39.276Z,25.27
2019-03-13T05:00:12.877Z,29.07
2019-03-13T05:02:43.202Z,10.90
2019-03-13T05:05:37.227Z,20.93
2019-03-13T05:08:07.706Z,19.10
2019-03-13T05:10:38.236Z,11.93
2019-03-13T05:13:08.710Z,18.10
2019-03-13T05:15:39.299Z,24.53
2019-03-13T05:18:09.618Z,17.67
2019-03-13T05:20:39.944Z,16.07
2019-03-13T05:23:10.287Z,17.70
2019-03-13T05:25:41.919Z,20.50
2019-03-13T05:28:12.144Z,29.20
2019-03-13T05:30:42.466Z,20.60
2019-03-13T05:33:12.797Z,19.60
2019-03-13T05:35:43.013Z,20.03
2019-03-13T05:38:13.151Z,20.17
2019-03-13T05:40:43.232Z,21.10
2019-03-13T05:43:13.472Z,20.90
2019-03-13T05:45:52.906Z,21.23
2019-03-13T05:48:23.234Z,19.50
2019-03-13T05:50:53.665Z,19.40
2019-03-13T05:53:24.087Z,17.43
2019-03-13T05:55:54.690Z,16.83
2019-03-13T05:58:24.937Z,16.13
2019-03-13T06:00:55.261Z,18.10
2019-03-13T06:03:25.483Z,13.40
2019-03-13T06:05:55.809Z,15.80
2019-03-13T06:08:26.155Z,20.63
2019-03-13T06:10:56.458Z,30.03
2019-03-13T06:13:26.984Z,23.33
2019-03-13T06:15:57.308Z,23.50
2019-03-13T06:18:27.534Z,17.33
2019-03-13T06:20:57.854Z,15.10
2019-03-13T06:23:28.179Z,19.17
2019-03-13T06:25:58.405Z,12.90
2019-03-13T06:28:28.827Z,15.77
2019-03-13T06:30:59.158Z,11.83
2019-03-13T06:33:29.369Z,11.93
2019-03-13T06:36:01.132Z,18.50
2019-03-13T06:38:32.741Z,14.57
2019-03-13T06:41:05.193Z,12.63
2019-03-13T06:43:34.584Z,16.83
2019-03-13T06:46:04.988Z,13.87
2019-03-13T06:48:35.209Z,12.50
2019-03-13T06:51:05.735Z,13.30
2019-03-13T06:53:36.066Z,11.20
2019-03-13T06:56:06.392Z,11.73
2019-03-13T06:58:38.142Z,12.23
2019-03-13T07:01:16.043Z,6.67
2019-03-13T07:03:47.802Z,18.60
2019-03-13T07:06:22.632Z,13.40
2019-03-13T07:09:06.478Z,10.83
2019-03-13T07:11:38.439Z,12.17
2019-03-13T07:14:12.860Z,22.90
2019-03-13T07:16:50.758Z,9.57
2019-03-13T07:19:22.408Z,15.60
2019-03-13T07:22:00.416Z,23.47
2019-03-13T07:24:37.700Z,14.50
2019-03-13T07:27:25.458Z,23.93
2019-03-13T07:29:57.383Z,12.50
2019-03-13T07:32:44.522Z,21.07
2019-03-13T07:35:19.772Z,20.00
2019-03-13T07:37:54.379Z,15.47
2019-03-13T07:40:29.207Z,22.30
2019-03-13T07:43:10.384Z,15.40
2019-03-13T07:45:42.111Z,27.40
2019-03-13T07:48:22.808Z,22.73
2019-03-13T07:50:57.432Z,20.33
2019-03-13T07:53:45.784Z,20.53
2019-03-13T07:56:26.448Z,28.53
2019-03-13T07:58:58.325Z,21.57
2019-03-13T08:01:30.171Z,13.30
2019-03-13T08:04:11.141Z,17.70
2019-03-13T08:06:43.104Z,30.30
2019-03-13T08:09:20.802Z,13.93
2019-03-13T08:13:02.530Z,63.20
2019-03-13T08:15:33.741Z,111.53
2019-03-13T08:18:20.387Z,48.03
2019-03-13T08:20:57.535Z,35.27
2019-03-13T08:23:40.963Z,32.23
2019-03-13T08:26:21.363Z,15.93
2019-03-13T08:28:52.876Z,29.70
2019-03-13T08:31:24.227Z,15.80
2019-03-13T08:33:55.402Z,27.30
2019-03-13T08:36:26.819Z,28.10
2019-03-13T08:38:58.178Z,25.53
2019-03-13T08:41:44.496Z,17.73
2019-03-13T08:44:15.802Z,24.77
2019-03-13T08:46:49.822Z,16.50
2019-03-13T08:49:21.375Z,19.17
2019-03-13T08:52:01.856Z,18.03
2019-03-13T08:54:33.082Z,27.57
2019-03-13T08:57:19.585Z,19.17
2019-03-13T08:59:50.932Z,23.77
2019-03-13T09:02:22.232Z,14.90
2019-03-13T09:04:53.668Z,19.63
2019-03-13T09:07:42.927Z,15.47
2019-03-13T09:10:15.711Z,19.47
2019-03-13T09:12:46.858Z,18.50
2019-03-13T09:15:33.734Z,22.63
2019-03-13T09:18:21.297Z,16.30
2019-03-13T09:21:04.519Z,20.33
2019-03-13T09:23:38.838Z,19.57
2019-03-13T09:26:13.056Z,30.97
2019-03-13T09:28:59.424Z,18.97
2019-03-13T09:31:39.575Z,12.63
2019-03-13T09:34:26.091Z,18.53
2019-03-13T09:36:57.365Z,16.00
2019-03-13T09:39:40.299Z,14.50
2019-03-13T09:42:12.016Z,21.83
2019-03-13T09:44:43.302Z,20.40
2019-03-13T09:47:30.985Z,21.70
2019-03-13T09:50:02.329Z,24.10
2019-03-13T09:52:42.936Z,21.93
2019-03-13T09:55:14.447Z,15.13
2019-03-13T09:57:57.420Z,31.93
2019-03-13T10:00:44.256Z,16.00
2019-03-13T10:03:29.658Z,21.37
2019-03-13T10:06:00.934Z,34.17
2019-03-13T10:08:48.940Z,14.57
2019-03-13T10:11:22.903Z,17.93
2019-03-13T10:14:00.066Z,12.67
2019-03-13T10:16:47.178Z,22.10
2019-03-13T10:19:21.057Z,9.10
2019-03-13T10:21:55.479Z,11.40
2019-03-13T10:24:44.679Z,11.00
2019-03-13T10:27:18.797Z,15.50
2019-03-13T10:29:56.558Z,13.20
2019-03-13T10:32:30.566Z,13.03
2019-03-13T10:35:08.255Z,26.07
2019-03-13T10:37:39.436Z,12.23
2019-03-13T10:40:27.785Z,13.87
2019-03-13T10:43:17.533Z,15.93
2019-03-13T10:45:54.617Z,21.20
2019-03-13T10:48:26.006Z,26.73
2019-03-13T10:51:07.585Z,10.27
2019-03-13T10:53:50.981Z,17.70
2019-03-13T10:56:38.446Z,9.47
2019-03-13T10:59:15.729Z,13.43
2019-03-13T11:02:03.437Z,10.63
2019-03-13T11:04:34.779Z,15.83
2019-03-13T11:07:22.953Z,14.53
2019-03-13T11:10:00.468Z,12.50
2019-03-13T11:12:40.901Z,11.20
2019-03-13T11:15:24.334Z,14.47
2019-03-13T11:17:58.208Z,14.33
2019-03-13T11:20:29.587Z,6.87
2019-03-13T11:23:09.738Z,8.33
2019-03-13T11:25:43.653Z,7.03
2019-03-13T11:28:15.072Z,8.67
2019-03-13T11:30:50.730Z,10.53
2019-03-13T11:33:37.351Z,9.50
2019-03-13T11:36:17.784Z,10.73
2019-03-13T11:38:58.145Z,5.70
2019-03-13T11:41:35.432Z,7.73
2019-03-13T11:44:06.983Z,11.17
2019-03-13T11:46:40.993Z,5.77
2019-03-13T11:49:21.550Z,1.93
2019-03-13T11:52:01.541Z,3.77
2019-03-13T11:54:32.684Z,4.90
2019-03-13T11:57:16.012Z,10.70
2019-03-13T11:59:48.488Z,2.90
2019-03-13T12:02:36.418Z,5.27
2019-03-13T12:05:11.937Z,6.73
2019-03-13T12:07:43.903Z,9.00
2019-03-13T12:10:18.153Z,6.47
2019-03-13T12:13:04.650Z,7.40
2019-03-13T12:15:35.791Z,10.47
2019-03-13T12:18:22.264Z,4.50
2019-03-13T12:20:59.678Z,7.57
2019-03-13T12:23:34.179Z,6.57
2019-03-13T12:26:05.729Z,9.30
2019-03-13T12:28:46.018Z,11.30
2019-03-13T12:31:20.345Z,11.43
2019-03-13T12:33:54.447Z,7.20
2019-03-13T12:36:25.702Z,10.10
2019-03-13T12:38:59.620Z,9.20
2019-03-13T12:41:37.103Z,7.07
2019-03-13T12:44:08.243Z,7.30
2019-03-13T12:46:39.654Z,12.27
2019-03-13T12:49:16.879Z,12.90
2019-03-13T12:51:51.850Z,8.50
2019-03-13T12:54:40.739Z,6.63
2019-03-13T12:57:27.123Z,5.93
2019-03-13T12:59:58.585Z,12.70
2019-03-13T13:02:35.398Z,10.57
2019-03-13T13:05:16.676Z,9.13
2019-03-13T13:08:06.289Z,13.60
2019-03-13T13:10:54.050Z,15.53
2019-03-13T13:13:28.675Z,9.77
2019-03-13T13:16:15.212Z,10.10
2019-03-13T13:18:51.955Z,11.20
2019-03-13T13:21:21.899Z,18.80
2019-03-13T13:23:51.683Z,9.03
2019-03-13T13:26:21.373Z,9.50
2019-03-13T13:28:50.999Z,11.03
2019-03-13T13:31:20.680Z,10.77
2019-03-13T13:33:50.465Z,9.40
2019-03-13T13:36:20.218Z,7.83
2019-03-13T13:38:51.520Z,14.03
2019-03-13T13:41:21.263Z,8.60
2019-03-13T13:43:50.819Z,6.87
2019-03-13T13:46:22.855Z,9.43
2019-03-13T13:48:52.489Z,5.03
2019-03-13T13:51:22.309Z,12.20
2019-03-13T13:53:55.455Z,8.20
2019-03-13T13:56:23.330Z,4.90
2019-03-13T13:58:53.245Z,7.20
2019-03-13T14:01:22.909Z,9.43
2019-03-13T14:03:52.591Z,5.43
2019-03-13T14:06:22.375Z,9.67
2019-03-13T14:08:52.022Z,14.00
2019-03-13T14:11:21.801Z,7.43
2019-03-13T14:13:51.532Z,11.93
2019-03-13T14:16:21.214Z,6.30
2019-03-13T14:18:51.063Z,6.07
2019-03-13T14:21:20.837Z,11.73
2019-03-13T14:23:50.586Z,12.37
2019-03-13T14:26:20.187Z,12.90
2019-03-13T14:28:49.977Z,18.17
2019-03-13T14:31:19.675Z,14.63
2019-03-13T14:33:49.522Z,13.50
2019-03-13T14:36:19.298Z,25.37
2019-03-13T14:38:49.218Z,21.10
2019-03-13T14:41:18.860Z,15.00
2019-03-13T14:43:48.671Z,22.63
2019-03-13T14:46:18.245Z,23.03
2019-03-13T14:48:47.982Z,22.20
2019-03-13T14:51:17.601Z,22.50
2019-03-13T14:53:47.567Z,24.23
2019-03-13T14:56:17.427Z,11.63
2019-03-13T14:58:47.196Z,21.43
2019-03-13T15:01:16.908Z,24.33
2019-03-13T15:03:46.825Z,14.80
2019-03-13T15:06:16.471Z,14.63
2019-03-13T15:08:46.209Z,16.30
2019-03-13T15:11:15.902Z,16.10
2019-03-13T15:13:45.439Z,14.77
2019-03-13T15:16:15.012Z,16.17
2019-03-13T15:18:44.618Z,22.53
2019-03-13T15:21:14.414Z,18.17
2019-03-13T15:23:44.500Z,16.73
2019-03-13T15:26:14.547Z,15.40
2019-03-13T15:28:45.358Z,16.60
2019-03-13T15:31:15.297Z,13.63
2019-03-13T15:33:45.110Z,15.87
2019-03-13T15:36:15.042Z,24.00
2019-03-13T15:38:44.839Z,17.80
2019-03-13T15:41:14.451Z,20.73
2019-03-13T15:43:44.224Z,14.63
2019-03-13T15:46:14.240Z,29.77
2019-03-13T15:48:43.888Z,17.93
2019-03-13T15:51:13.504Z,20.30
2019-03-13T15:53:43.368Z,22.63
2019-03-13T15:56:13.077Z,33.83
2019-03-13T15:58:42.824Z,25.20
2019-03-13T16:01:12.710Z,26.97
2019-03-13T16:03:42.617Z,28.20
2019-03-13T16:06:12.362Z,24.53
2019-03-13T16:08:42.136Z,24.73
2019-03-13T16:11:11.982Z,23.90
2019-03-13T16:13:41.587Z,17.90
2019-03-13T16:16:12.370Z,23.90
2019-03-13T16:18:42.091Z,19.20
2019-03-13T16:21:11.652Z,12.93
2019-03-13T16:23:41.306Z,22.53
2019-03-13T16:26:10.979Z,27.47
2019-03-13T16:28:40.521Z,17.27
2019-03-13T16:31:11.058Z,13.33
2019-03-13T16:33:40.770Z,25.00
2019-03-13T16:36:10.410Z,26.00
2019-03-13T16:38:40.189Z,33.27
2019-03-13T16:41:09.907Z,24.67
2019-03-13T16:43:39.816Z,31.80
2019-03-13T16:46:09.624Z,21.77
2019-03-13T16:48:40.631Z,28.87
2019-03-13T16:51:10.309Z,17.77
2019-03-13T16:53:39.935Z,16.93
2019-03-13T16:56:09.693Z,31.57
2019-03-13T16:58:39.334Z,21.10
2019-03-13T17:01:08.945Z,32.27
2019-03-13T17:03:38.819Z,15.97
2019-03-13T17:06:08.476Z,27.60
2019-03-13T17:08:38.066Z,29.07
2019-03-13T17:11:07.776Z,25.57
2019-03-13T17:13:37.472Z,24.73
2019-03-13T17:16:07.314Z,25.23
2019-03-13T17:18:37.078Z,30.17
2019-03-13T17:21:06.997Z,10.40
2019-03-13T17:23:37.060Z,21.50
2019-03-13T17:26:06.658Z,10.73
2019-03-13T17:28:36.473Z,11.00
2019-03-13T17:31:06.241Z,13.53
2019-03-13T17:33:35.825Z,13.60
2019-03-13T17:36:05.487Z,6.83
2019-03-13T17:38:35.180Z,15.23
2019-03-13T17:41:04.874Z,23.60
2019-03-13T17:43:39.573Z,13.67
2019-03-13T17:46:07.706Z,15.60
2019-03-13T17:48:37.383Z,20.13
2019-03-13T17:51:07.197Z,13.93
2019-03-13T17:53:36.936Z,29.17
2019-03-13T17:56:07.061Z,21.80
2019-03-13T17:58:37.042Z,18.17
2019-03-13T18:01:06.788Z,14.83
2019-03-13T18:03:36.598Z,23.70
2019-03-13T18:06:06.314Z,23.33
2019-03-13T18:08:36.025Z,25.37
2019-03-13T18:11:05.728Z,21.90
2019-03-13T18:13:35.433Z,22.63
2019-03-13T18:16:05.438Z,24.57
2019-03-13T18:18:36.493Z,23.67
2019-03-13T18:21:06.423Z,34.03
2019-03-13T18:23:36.091Z,20.33
2019-03-13T18:26:07.433Z,27.23
2019-03-13T18:28:37.075Z,20.27
2019-03-13T18:31:08.524Z,21.13
2019-03-13T18:33:38.128Z,22.70
2019-03-13T18:36:07.939Z,15.60
2019-03-13T18:38:37.559Z,23.33
2019-03-13T18:41:08.598Z,23.00
2019-03-13T18:43:38.266Z,22.87
2019-03-13T18:46:08.115Z,17.80
2019-03-13T18:48:37.991Z,20.80
2019-03-13T18:51:07.687Z,20.13
2019-03-13T18:53:37.378Z,21.63
2019-03-13T18:56:07.219Z,26.77
2019-03-13T18:58:36.991Z,18.97
2019-03-13T19:01:06.988Z,31.00
2019-03-13T19:03:36.692Z,26.47
2019-03-13T19:06:06.499Z,14.80
2019-03-13T19:08:36.254Z,25.63
2019-03-13T19:11:06.195Z,16.23
2019-03-13T19:13:36.375Z,73.73
2019-03-13T19:16:06.645Z,83.17
2019-03-13T19:18:37.232Z,36.13
2019-03-13T19:21:07.885Z,26.97
2019-03-13T19:23:38.981Z,23.53
2019-03-13T19:26:12.147Z,24.70
2019-03-13T19:28:46.928Z,17.57
2019-03-13T19:31:19.330Z,20.33
2019-03-13T19:33:50.460Z,22.83
2019-03-13T19:36:21.112Z,16.83
2019-03-13T19:38:52.914Z,15.13
2019-03-13T19:41:23.190Z,20.50
2019-03-13T19:43:53.652Z,18.20
2019-03-13T19:46:24.366Z,18.93
2019-03-13T19:48:56.402Z,14.03
2019-03-13T19:51:35.253Z,17.20
2019-03-13T19:54:06.568Z,11.83
2019-03-13T19:56:37.531Z,18.60
2019-03-13T19:59:09.067Z,23.60
2019-03-13T20:01:43.097Z,17.97
2019-03-13T20:04:14.993Z,18.33
2019-03-13T20:06:47.930Z,8.60
2019-03-13T20:09:21.842Z,12.93
2019-03-13T20:11:52.191Z,16.53
2019-03-13T20:14:22.489Z,11.17
2019-03-13T20:16:52.813Z,13.73
2019-03-13T20:19:23.399Z,8.93
2019-03-13T20:21:53.716Z,8.33
2019-03-13T20:24:29.217Z,13.53
2019-03-13T20:27:00.137Z,17.87
2019-03-13T20:29:30.474Z,9.63
2019-03-13T20:32:01.272Z,12.20
2019-03-13T20:34:31.607Z,10.73
2019-03-13T20:37:02.066Z,14.07
2019-03-13T20:39:34.001Z,15.47
2019-03-13T20:42:04.588Z,15.57
2019-03-13T20:44:35.266Z,19.00
2019-03-13T20:47:05.817Z,8.20
2019-03-13T20:49:35.975Z,11.17
2019-03-13T20:52:06.566Z,12.10
2019-03-13T20:54:36.890Z,6.83
2019-03-13T20:57:07.217Z,16.60
2019-03-13T20:59:37.541Z,6.73
2019-03-13T21:02:08.067Z,9.83
2019-03-13T21:04:39.148Z,15.40
2019-03-13T21:07:09.657Z,9.17
2019-03-13T21:09:39.868Z,10.50
2019-03-13T21:12:09.981Z,13.33
2019-03-13T21:14:40.402Z,10.30
2019-03-13T21:17:10.727Z,15.10
2019-03-13T21:19:41.257Z,19.23
2019-03-13T21:22:11.580Z,9.20
2019-03-13T21:24:42.034Z,9.33
2019-03-13T21:27:12.599Z,14.80
2019-03-13T21:29:42.859Z,14.50
2019-03-13T21:32:13.191Z,17.23
2019-03-13T21:34:43.513Z,15.37
2019-03-13T21:37:13.935Z,11.90
2019-03-13T21:39:44.155Z,10.33
2019-03-13T21:42:16.125Z,6.80
2019-03-13T21:44:46.443Z,11.30
2019-03-13T21:47:16.780Z,9.77
2019-03-13T21:49:46.988Z,10.53
2019-03-13T21:52:17.413Z,13.00
2019-03-13T21:54:47.738Z,14.73
2019-03-13T21:57:17.856Z,17.67
2019-03-13T21:59:48.389Z,16.97
2019-03-13T22:02:18.712Z,8.60
2019-03-13T22:04:49.034Z,8.97
2019-03-13T22:07:19.396Z,10.60
2019-03-13T22:09:50.095Z,14.83
2019-03-13T22:12:20.415Z,20.33
2019-03-13T22:14:50.671Z,12.20
2019-03-13T22:17:21.067Z,10.17
2019-03-13T22:19:51.292Z,10.10
2019-03-13T22:22:21.412Z,12.47
2019-03-13T22:24:51.489Z,12.80
2019-03-13T22:27:21.745Z,9.67
2019-03-13T22:29:52.278Z,15.33
2019-03-13T22:32:22.598Z,18.47
2019-03-13T22:34:52.922Z,17.37
2019-03-13T22:37:23.251Z,13.57
2019-03-13T22:39:53.577Z,10.27
2019-03-13T22:42:23.720Z,14.13
2019-03-13T22:44:53.839Z,21.20
2019-03-13T22:47:23.936Z,20.10
2019-03-13T22:49:54.168Z,18.47
2019-03-13T22:52:24.371Z,15.20
2019-03-13T22:54:54.693Z,24.60
2019-03-13T22:57:25.224Z,19.63
2019-03-13T22:59:55.752Z,20.40
2019-03-13T23:02:26.083Z,31.13
2019-03-13T23:04:56.607Z,16.60
2019-03-13T23:07:27.237Z,16.03
2019-03-13T23:09:57.381Z,20.03
2019-03-13T23:12:30.281Z,21.47
2019-03-13T23:14:59.640Z,25.73
2019-03-13T23:17:29.965Z,34.63
2019-03-13T23:20:00.373Z,21.83
2019-03-13T23:22:30.844Z,19.93
2019-03-13T23:25:01.544Z,11.20
2019-03-13T23:27:31.711Z,17.87
2019-03-13T23:30:01.943Z,19.27
2019-03-13T23:32:32.055Z,16.30
2019-03-13T23:35:04.166Z,13.80
2019-03-13T23:37:37.033Z,18.00
2019-03-13T23:40:08.005Z,19.80
2019-03-13T23:42:38.608Z,16.93
2019-03-13T23:45:10.905Z,13.00
2019-03-13T23:47:41.225Z,16.93
2019-03-13T23:50:13.393Z,19.53
2019-03-13T23:52:43.539Z,14.63
2019-03-13T23:55:13.836Z,22.47
2019-03-13T23:57:44.080Z,28.10
